To NAV CANADA Home Page Login to a new session Search on AWWS site Feedback and Comments Disclaimer Vers la page française équivalente Tips FAQ What's new on the site To the Forecasts and Observations / NOTAM section To "File a Flight Plan" website Publications and other links Update of the User's profile FIC Telephone Numbers My Weather Data Folder Route Weather Data Regional Weather Data Local Weather Data To the Forecasts and Observations / NOTAM section
Request Generated 06/26/2017 at 22:25:45 UTC . Weather information available at that time is displayed.

METAR/TAF

LLOYDMINSTER/AB    (show WxCam)

METAR CYLL 262200Z 13017G24KT 15SM SCT140 BKN170 25/12 A2972 RMK
AC3AC4 SLP066 DENSITY ALT 4100FT=
METAR CYLL 262100Z 14020G32KT 15SM FEW140 BKN160 BKN300 24/11 A2974
RMK AS2AC4CI1 SLP074 DENSITY ALT 4000FT=
METAR CYLL 262000Z 14021G28KT 15SM BKN180 OVC300 23/11 A2978 RMK
AC7CI1 SLP086 DENSITY ALT 3900FT=

TAF CYLL 261748Z 2618/2706 16015G25KT P6SM SCT120 BKN200 TEMPO
2618/2706 FEW080 BKN120
RMK NXT FCST BY 270000Z=
Your time UTC time
Weather data provided by Environment Canada and NAV CANADA